sensor_id;sensor_type;location;lat;lon;timestamp;pressure;altitude;pressure_sealevel;temperature;humidity
17521;BME280;8878;-33.370;-70.552;2023-03-25T00:01:21;92153.22;;;27.65;26.92
17521;BME280;8878;-33.370;-70.552;2023-03-25T00:03:51;92163.28;;;27.61;28.05
17521;BME280;8878;-33.370;-70.552;2023-03-25T00:06:21;92153.72;;;27.41;25.44
17521;BME280;8878;-33.370;-70.552;2023-03-25T00:08:52;92161.16;;;27.47;27.35
17521;BME280;8878;-33.370;-70.552;2023-03-25T00:11:22;92168.41;;;27.40;27.30
17521;BME280;8878;-33.370;-70.552;2023-03-25T00:13:51;92175.94;;;27.23;27.72
17521;BME280;8878;-33.370;-70.552;2023-03-25T00:16:21;92176.50;;;27.06;27.47
17521;BME280;8878;-33.370;-70.552;2023-03-25T00:18:50;92174.09;;;27.01;27.97
17521;BME280;8878;-33.370;-70.552;2023-03-25T00:21:19;92170.81;;;26.88;27.90
17521;BME280;8878;-33.370;-70.552;2023-03-25T00:23:49;92170.28;;;26.79;27.69
17521;BME280;8878;-33.370;-70.552;2023-03-25T00:26:20;92171.25;;;26.64;27.16
17521;BME280;8878;-33.370;-70.552;2023-03-25T00:28:49;92175.00;;;26.56;27.08
17521;BME280;8878;-33.370;-70.552;2023-03-25T00:31:19;92174.47;;;26.47;27.23
17521;BME280;8878;-33.370;-70.552;2023-03-25T00:33:48;92184.81;;;26.41;27.58
17521;BME280;8878;-33.370;-70.552;2023-03-25T00:36:18;92183.06;;;26.30;27.06
17521;BME280;8878;-33.370;-70.552;2023-03-25T00:38:48;92175.84;;;26.37;26.58
17521;BME280;8878;-33.370;-70.552;2023-03-25T00:41:21;92182.69;;;26.31;26.68
17521;BME280;8878;-33.370;-70.552;2023-03-25T00:43:52;92184.22;;;26.29;27.46
17521;BME280;8878;-33.370;-70.552;2023-03-25T00:46:23;92188.28;;;26.19;27.43
17521;BME280;8878;-33.370;-70.552;2023-03-25T00:48:53;92184.97;;;26.06;28.20
17521;BME280;8878;-33.370;-70.552;2023-03-25T00:51:24;92193.22;;;25.94;29.23
17521;BME280;8878;-33.370;-70.552;2023-03-25T00:53:55;92196.19;;;25.86;28.92
17521;BME280;8878;-33.370;-70.552;2023-03-25T00:56:28;92198.34;;;25.77;28.05
17521;BME280;8878;-33.370;-70.552;2023-03-25T00:58:58;92191.63;;;25.90;27.07
17521;BME280;8878;-33.370;-70.552;2023-03-25T01:01:27;92191.28;;;25.72;26.32
17521;BME280;8878;-33.370;-70.552;2023-03-25T01:03:59;92200.88;;;25.89;26.78
17521;BME280;8878;-33.370;-70.552;2023-03-25T01:06:30;92196.72;;;25.95;25.53
17521;BME280;8878;-33.370;-70.552;2023-03-25T01:09:01;92201.13;;;26.03;25.43
17521;BME280;8878;-33.370;-70.552;2023-03-25T01:11:37;92200.94;;;25.92;24.90
17521;BME280;8878;-33.370;-70.552;2023-03-25T01:14:07;92199.06;;;25.96;24.82
17521;BME280;8878;-33.370;-70.552;2023-03-25T01:16:37;92201.34;;;25.94;25.35
17521;BME280;8878;-33.370;-70.552;2023-03-25T01:19:07;92204.44;;;25.93;25.28
17521;BME280;8878;-33.370;-70.552;2023-03-25T01:21:37;92207.84;;;25.90;26.94
17521;BME280;8878;-33.370;-70.552;2023-03-25T01:24:07;92198.34;;;25.77;27.77
17521;BME280;8878;-33.370;-70.552;2023-03-25T01:26:42;92201.34;;;25.71;28.08
17521;BME280;8878;-33.370;-70.552;2023-03-25T01:29:12;92203.47;;;25.62;28.44
17521;BME280;8878;-33.370;-70.552;2023-03-25T01:31:42;92213.19;;;25.48;29.30
17521;BME280;8878;-33.370;-70.552;2023-03-25T01:34:11;92207.41;;;25.30;30.55
17521;BME280;8878;-33.370;-70.552;2023-03-25T01:36:41;92202.44;;;25.13;30.80
17521;BME280;8878;-33.370;-70.552;2023-03-25T01:39:13;92205.13;;;24.93;29.66
17521;BME280;8878;-33.370;-70.552;2023-03-25T01:41:45;92197.03;;;24.93;28.63
17521;BME280;8878;-33.370;-70.552;2023-03-25T01:47:17;92198.09;;;25.08;28.66
17521;BME280;8878;-33.370;-70.552;2023-03-25T01:49:46;92194.69;;;25.11;29.14
17521;BME280;8878;-33.370;-70.552;2023-03-25T01:52:20;92194.78;;;25.15;28.43
17521;BME280;8878;-33.370;-70.552;2023-03-25T01:54:52;92195.53;;;25.15;27.90
17521;BME280;8878;-33.370;-70.552;2023-03-25T01:57:24;92197.03;;;25.13;28.41
17521;BME280;8878;-33.370;-70.552;2023-03-25T01:59:56;92197.53;;;24.99;28.77
17521;BME280;8878;-33.370;-70.552;2023-03-25T02:02:26;92187.69;;;24.91;30.07
17521;BME280;8878;-33.370;-70.552;2023-03-25T02:05:03;92191.34;;;24.83;30.05
17521;BME280;8878;-33.370;-70.552;2023-03-25T02:07:38;92185.34;;;24.74;30.09
17521;BME280;8878;-33.370;-70.552;2023-03-25T02:10:09;92188.69;;;24.67;30.10
17521;BME280;8878;-33.370;-70.552;2023-03-25T02:12:41;92196.00;;;24.67;30.17
17521;BME280;8878;-33.370;-70.552;2023-03-25T02:15:12;92186.88;;;24.55;30.62
17521;BME280;8878;-33.370;-70.552;2023-03-25T02:18:00;92188.63;;;24.48;30.19
17521;BME280;8878;-33.370;-70.552;2023-03-25T02:23:51;92178.75;;;24.21;30.37
17521;BME280;8878;-33.370;-70.552;2023-03-25T02:27:02;92175.72;;;24.22;30.62
17521;BME280;8878;-33.370;-70.552;2023-03-25T02:30:11;92174.13;;;24.21;31.06
17521;BME280;8878;-33.370;-70.552;2023-03-25T02:39:02;92159.84;;;24.05;30.79
17521;BME280;8878;-33.370;-70.552;2023-03-25T02:41:40;92162.09;;;24.03;30.39
17521;BME280;8878;-33.370;-70.552;2023-03-25T02:44:14;92160.19;;;23.88;30.08
17521;BME280;8878;-33.370;-70.552;2023-03-25T02:46:49;92164.09;;;23.90;30.03
17521;BME280;8878;-33.370;-70.552;2023-03-25T02:49:23;92164.03;;;23.87;30.89
17521;BME280;8878;-33.370;-70.552;2023-03-25T02:51:59;92161.31;;;23.87;29.99
17521;BME280;8878;-33.370;-70.552;2023-03-25T02:54:32;92159.50;;;23.91;29.81
17521;BME280;8878;-33.370;-70.552;2023-03-25T02:57:06;92151.94;;;23.96;29.55
17521;BME280;8878;-33.370;-70.552;2023-03-25T02:59:37;92153.31;;;23.90;29.78
17521;BME280;8878;-33.370;-70.552;2023-03-25T03:02:16;92148.38;;;23.76;28.63
17521;BME280;8878;-33.370;-70.552;2023-03-25T03:04:48;92147.75;;;23.83;28.40
17521;BME280;8878;-33.370;-70.552;2023-03-25T03:07:22;92146.47;;;23.93;28.23
17521;BME280;8878;-33.370;-70.552;2023-03-25T03:09:59;92140.63;;;23.91;29.18
17521;BME280;8878;-33.370;-70.552;2023-03-25T03:12:50;92135.84;;;23.84;29.01
17521;BME280;8878;-33.370;-70.552;2023-03-25T03:15:30;92141.16;;;23.65;28.76
17521;BME280;8878;-33.370;-70.552;2023-03-25T03:18:10;92146.25;;;23.54;29.21
17521;BME280;8878;-33.370;-70.552;2023-03-25T03:20:48;92143.56;;;23.26;29.70
17521;BME280;8878;-33.370;-70.552;2023-03-25T03:23:25;92153.84;;;23.36;29.41
17521;BME280;8878;-33.370;-70.552;2023-03-25T03:26:05;92139.88;;;23.19;28.86
17521;BME280;8878;-33.370;-70.552;2023-03-25T03:28:44;92137.03;;;23.27;29.81
17521;BME280;8878;-33.370;-70.552;2023-03-25T03:31:21;92136.31;;;23.42;30.33
17521;BME280;8878;-33.370;-70.552;2023-03-25T03:33:55;92140.41;;;23.52;28.69
17521;BME280;8878;-33.370;-70.552;2023-03-25T03:36:27;92143.28;;;23.59;28.10
17521;BME280;8878;-33.370;-70.552;2023-03-25T03:39:03;92137.22;;;23.62;29.58
17521;BME280;8878;-33.370;-70.552;2023-03-25T03:41:39;92140.44;;;23.68;30.71
17521;BME280;8878;-33.370;-70.552;2023-03-25T03:44:11;92138.28;;;23.58;31.05
17521;BME280;8878;-33.370;-70.552;2023-03-25T03:46:46;92139.47;;;23.32;30.50
17521;BME280;8878;-33.370;-70.552;2023-03-25T03:49:23;92135.22;;;23.31;32.44
17521;BME280;8878;-33.370;-70.552;2023-03-25T03:51:57;92137.25;;;23.34;30.98
17521;BME280;8878;-33.370;-70.552;2023-03-25T03:54:30;92139.41;;;23.29;31.17
17521;BME280;8878;-33.370;-70.552;2023-03-25T03:57:07;92134.50;;;23.19;32.91
17521;BME280;8878;-33.370;-70.552;2023-03-25T03:59:41;92127.03;;;23.12;32.65
17521;BME280;8878;-33.370;-70.552;2023-03-25T04:02:21;92128.19;;;22.99;33.53
17521;BME280;8878;-33.370;-70.552;2023-03-25T04:04:53;92123.41;;;22.92;32.58
17521;BME280;8878;-33.370;-70.552;2023-03-25T04:07:31;92129.13;;;22.91;33.42
17521;BME280;8878;-33.370;-70.552;2023-03-25T04:10:09;92120.38;;;22.94;32.67
17521;BME280;8878;-33.370;-70.552;2023-03-25T04:12:44;92125.38;;;22.95;32.63
17521;BME280;8878;-33.370;-70.552;2023-03-25T04:15:14;92122.94;;;22.90;31.64
17521;BME280;8878;-33.370;-70.552;2023-03-25T04:17:44;92118.56;;;22.98;30.52
17521;BME280;8878;-33.370;-70.552;2023-03-25T04:20:15;92124.91;;;22.78;30.17
17521;BME280;8878;-33.370;-70.552;2023-03-25T04:22:49;92107.50;;;22.87;30.52
17521;BME280;8878;-33.370;-70.552;2023-03-25T04:25:18;92108.25;;;22.88;30.30
17521;BME280;8878;-33.370;-70.552;2023-03-25T04:27:52;92107.72;;;22.94;30.34
17521;BME280;8878;-33.370;-70.552;2023-03-25T04:30:25;92111.59;;;22.97;29.56
17521;BME280;8878;-33.370;-70.552;2023-03-25T04:32:55;92107.31;;;23.08;29.28
17521;BME280;8878;-33.370;-70.552;2023-03-25T04:35:26;92106.59;;;23.11;28.12
17521;BME280;8878;-33.370;-70.552;2023-03-25T04:37:58;92111.22;;;23.11;28.22
17521;BME280;8878;-33.370;-70.552;2023-03-25T04:40:28;92110.59;;;23.01;28.38
17521;BME280;8878;-33.370;-70.552;2023-03-25T04:42:59;92104.97;;;23.07;28.47
17521;BME280;8878;-33.370;-70.552;2023-03-25T04:45:28;92099.84;;;23.17;29.46
17521;BME280;8878;-33.370;-70.552;2023-03-25T04:48:02;92104.44;;;23.17;27.88
17521;BME280;8878;-33.370;-70.552;2023-03-25T04:50:32;92098.91;;;23.25;29.27
17521;BME280;8878;-33.370;-70.552;2023-03-25T04:53:01;92097.94;;;23.18;30.10
17521;BME280;8878;-33.370;-70.552;2023-03-25T04:55:31;92100.44;;;23.11;30.02
17521;BME280;8878;-33.370;-70.552;2023-03-25T04:58:02;92100.16;;;23.00;29.52
17521;BME280;8878;-33.370;-70.552;2023-03-25T05:00:33;92090.91;;;22.85;28.55
17521;BME280;8878;-33.370;-70.552;2023-03-25T05:03:03;92090.06;;;22.97;28.04
17521;BME280;8878;-33.370;-70.552;2023-03-25T05:05:32;92091.31;;;22.99;28.75
17521;BME280;8878;-33.370;-70.552;2023-03-25T05:08:02;92080.47;;;23.12;28.06
17521;BME280;8878;-33.370;-70.552;2023-03-25T05:10:31;92086.75;;;23.16;28.31
17521;BME280;8878;-33.370;-70.552;2023-03-25T05:13:05;92088.22;;;23.13;28.66
17521;BME280;8878;-33.370;-70.552;2023-03-25T05:15:36;92092.13;;;22.88;28.35
17521;BME280;8878;-33.370;-70.552;2023-03-25T05:18:07;92079.47;;;22.88;28.59
17521;BME280;8878;-33.370;-70.552;2023-03-25T05:20:37;92085.81;;;22.96;28.15
17521;BME280;8878;-33.370;-70.552;2023-03-25T05:23:10;92082.31;;;22.80;27.99
17521;BME280;8878;-33.370;-70.552;2023-03-25T05:25:42;92074.25;;;22.80;28.60
17521;BME280;8878;-33.370;-70.552;2023-03-25T05:28:13;92069.53;;;22.77;30.01
17521;BME280;8878;-33.370;-70.552;2023-03-25T05:30:44;92080.06;;;22.82;30.44
17521;BME280;8878;-33.370;-70.552;2023-03-25T05:33:16;92073.25;;;22.72;31.03
17521;BME280;8878;-33.370;-70.552;2023-03-25T05:35:45;92069.22;;;22.66;31.52
17521;BME280;8878;-33.370;-70.552;2023-03-25T05:38:15;92077.16;;;22.75;31.01
17521;BME280;8878;-33.370;-70.552;2023-03-25T05:40:45;92082.22;;;22.76;30.91
17521;BME280;8878;-33.370;-70.552;2023-03-25T05:43:17;92079.28;;;22.69;30.98
17521;BME280;8878;-33.370;-70.552;2023-03-25T05:45:48;92091.66;;;22.58;30.84
17521;BME280;8878;-33.370;-70.552;2023-03-25T05:48:17;92087.53;;;22.48;30.62
17521;BME280;8878;-33.370;-70.552;2023-03-25T05:50:47;92094.28;;;22.42;31.81
17521;BME280;8878;-33.370;-70.552;2023-03-25T05:53:17;92089.69;;;22.43;30.38
17521;BME280;8878;-33.370;-70.552;2023-03-25T05:55:46;92094.66;;;22.16;30.30
17521;BME280;8878;-33.370;-70.552;2023-03-25T05:58:20;92092.50;;;22.34;29.77
17521;BME280;8878;-33.370;-70.552;2023-03-25T06:00:51;92098.50;;;22.55;29.09
17521;BME280;8878;-33.370;-70.552;2023-03-25T06:03:21;92090.16;;;22.73;29.22
17521;BME280;8878;-33.370;-70.552;2023-03-25T06:05:51;92096.34;;;22.73;31.43
17521;BME280;8878;-33.370;-70.552;2023-03-25T06:08:21;92090.63;;;22.62;31.05
17521;BME280;8878;-33.370;-70.552;2023-03-25T06:10:52;92094.69;;;22.56;30.78
17521;BME280;8878;-33.370;-70.552;2023-03-25T06:13:26;92088.75;;;22.51;30.84
17521;BME280;8878;-33.370;-70.552;2023-03-25T06:15:56;92080.13;;;22.45;31.01
17521;BME280;8878;-33.370;-70.552;2023-03-25T06:18:25;92084.16;;;22.51;30.83
17521;BME280;8878;-33.370;-70.552;2023-03-25T06:20:55;92082.19;;;22.36;29.33
17521;BME280;8878;-33.370;-70.552;2023-03-25T06:23:25;92087.31;;;22.41;31.50
17521;BME280;8878;-33.370;-70.552;2023-03-25T06:25:55;92081.03;;;22.49;31.54
17521;BME280;8878;-33.370;-70.552;2023-03-25T06:28:26;92074.34;;;22.43;31.36
17521;BME280;8878;-33.370;-70.552;2023-03-25T06:30:56;92068.50;;;22.41;31.84
17521;BME280;8878;-33.370;-70.552;2023-03-25T06:33:26;92068.97;;;22.31;31.73
17521;BME280;8878;-33.370;-70.552;2023-03-25T06:35:55;92067.88;;;22.20;31.25
17521;BME280;8878;-33.370;-70.552;2023-03-25T06:38:25;92065.53;;;22.18;31.17
17521;BME280;8878;-33.370;-70.552;2023-03-25T06:40:55;92062.06;;;22.30;30.86
17521;BME280;8878;-33.370;-70.552;2023-03-25T06:43:27;92061.34;;;22.33;30.04
17521;BME280;8878;-33.370;-70.552;2023-03-25T06:45:56;92053.09;;;22.26;31.38
17521;BME280;8878;-33.370;-70.552;2023-03-25T06:48:25;92052.22;;;22.10;32.65
17521;BME280;8878;-33.370;-70.552;2023-03-25T06:50:54;92048.56;;;22.02;33.60
17521;BME280;8878;-33.370;-70.552;2023-03-25T06:53:24;92054.66;;;21.91;33.91
17521;BME280;8878;-33.370;-70.552;2023-03-25T06:55:55;92044.94;;;21.86;33.33
17521;BME280;8878;-33.370;-70.552;2023-03-25T06:58:27;92042.03;;;21.91;32.41
17521;BME280;8878;-33.370;-70.552;2023-03-25T07:01:00;92040.50;;;22.02;32.73
17521;BME280;8878;-33.370;-70.552;2023-03-25T07:03:32;92039.13;;;22.08;33.41
17521;BME280;8878;-33.370;-70.552;2023-03-25T07:06:02;92040.38;;;21.99;33.60
17521;BME280;8878;-33.370;-70.552;2023-03-25T07:08:32;92043.25;;;21.81;33.07
17521;BME280;8878;-33.370;-70.552;2023-03-25T07:11:01;92035.22;;;21.94;33.15
17521;BME280;8878;-33.370;-70.552;2023-03-25T07:13:33;92035.63;;;21.96;33.68
17521;BME280;8878;-33.370;-70.552;2023-03-25T07:16:02;92034.88;;;21.95;33.95
17521;BME280;8878;-33.370;-70.552;2023-03-25T07:18:31;92032.72;;;21.88;34.36
17521;BME280;8878;-33.370;-70.552;2023-03-25T07:21:01;92036.91;;;21.86;34.42
17521;BME280;8878;-33.370;-70.552;2023-03-25T07:23:31;92034.88;;;21.71;35.02
17521;BME280;8878;-33.370;-70.552;2023-03-25T07:26:00;92028.50;;;21.63;34.49
17521;BME280;8878;-33.370;-70.552;2023-03-25T07:28:31;92030.88;;;21.65;33.69
17521;BME280;8878;-33.370;-70.552;2023-03-25T07:31:00;92023.50;;;21.74;33.60
17521;BME280;8878;-33.370;-70.552;2023-03-25T07:33:30;92024.94;;;21.71;33.16
17521;BME280;8878;-33.370;-70.552;2023-03-25T07:35:59;92025.59;;;21.56;33.20
17521;BME280;8878;-33.370;-70.552;2023-03-25T07:38:28;92022.69;;;21.61;33.47
17521;BME280;8878;-33.370;-70.552;2023-03-25T07:40:58;92024.03;;;21.67;33.98
17521;BME280;8878;-33.370;-70.552;2023-03-25T07:43:27;92026.03;;;21.46;32.52
17521;BME280;8878;-33.370;-70.552;2023-03-25T07:46:00;92021.03;;;21.44;32.75
17521;BME280;8878;-33.370;-70.552;2023-03-25T07:48:29;92017.31;;;21.37;32.04
17521;BME280;8878;-33.370;-70.552;2023-03-25T07:50:59;92011.06;;;21.45;32.74
17521;BME280;8878;-33.370;-70.552;2023-03-25T07:53:28;92016.09;;;21.59;32.58
17521;BME280;8878;-33.370;-70.552;2023-03-25T07:55:57;92016.09;;;21.46;31.49
17521;BME280;8878;-33.370;-70.552;2023-03-25T07:58:26;92010.38;;;21.60;32.73
17521;BME280;8878;-33.370;-70.552;2023-03-25T08:00:57;92013.31;;;21.43;32.42
17521;BME280;8878;-33.370;-70.552;2023-03-25T08:03:28;92008.81;;;21.35;32.43
17521;BME280;8878;-33.370;-70.552;2023-03-25T08:06:00;92011.56;;;21.14;32.33
17521;BME280;8878;-33.370;-70.552;2023-03-25T08:08:29;92002.44;;;21.39;32.66
17521;BME280;8878;-33.370;-70.552;2023-03-25T08:10:59;92003.91;;;21.49;31.63
17521;BME280;8878;-33.370;-70.552;2023-03-25T08:13:29;92001.78;;;21.67;30.33
17521;BME280;8878;-33.370;-70.552;2023-03-25T08:15:58;91990.47;;;21.73;30.62
17521;BME280;8878;-33.370;-70.552;2023-03-25T08:18:29;91999.09;;;21.67;30.68
17521;BME280;8878;-33.370;-70.552;2023-03-25T08:20:59;91995.84;;;21.49;30.58
17521;BME280;8878;-33.370;-70.552;2023-03-25T08:23:28;91996.72;;;21.53;31.67
17521;BME280;8878;-33.370;-70.552;2023-03-25T08:25:57;91987.91;;;21.65;30.71
17521;BME280;8878;-33.370;-70.552;2023-03-25T08:28:28;91983.31;;;21.53;30.69
17521;BME280;8878;-33.370;-70.552;2023-03-25T08:30:58;91982.75;;;21.47;30.17
17521;BME280;8878;-33.370;-70.552;2023-03-25T08:33:29;91988.03;;;21.56;30.80
17521;BME280;8878;-33.370;-70.552;2023-03-25T08:36:00;91986.13;;;21.44;31.07
17521;BME280;8878;-33.370;-70.552;2023-03-25T08:38:29;91990.91;;;21.39;31.10
17521;BME280;8878;-33.370;-70.552;2023-03-25T08:40:59;91986.78;;;21.41;31.10
17521;BME280;8878;-33.370;-70.552;2023-03-25T08:43:28;91984.66;;;21.47;30.49
17521;BME280;8878;-33.370;-70.552;2023-03-25T08:45:57;91984.88;;;21.54;30.71
17521;BME280;8878;-33.370;-70.552;2023-03-25T08:48:28;91985.78;;;21.46;30.75
17521;BME280;8878;-33.370;-70.552;2023-03-25T08:50:58;91991.59;;;21.60;31.31
17521;BME280;8878;-33.370;-70.552;2023-03-25T08:53:27;91998.44;;;21.58;31.58
17521;BME280;8878;-33.370;-70.552;2023-03-25T08:55:57;91998.78;;;21.44;32.08
17521;BME280;8878;-33.370;-70.552;2023-03-25T08:58:26;92000.97;;;21.18;32.16
17521;BME280;8878;-33.370;-70.552;2023-03-25T09:00:57;92009.03;;;21.18;32.49
17521;BME280;8878;-33.370;-70.552;2023-03-25T09:03:28;92013.44;;;21.01;33.30
17521;BME280;8878;-33.370;-70.552;2023-03-25T09:06:00;92003.31;;;21.19;33.32
17521;BME280;8878;-33.370;-70.552;2023-03-25T09:08:31;92012.72;;;21.25;32.70
17521;BME280;8878;-33.370;-70.552;2023-03-25T09:11:00;92015.31;;;21.22;32.64
17521;BME280;8878;-33.370;-70.552;2023-03-25T09:13:30;92011.69;;;21.18;31.53
17521;BME280;8878;-33.370;-70.552;2023-03-25T09:15:59;92008.59;;;21.28;32.92
17521;BME280;8878;-33.370;-70.552;2023-03-25T09:18:31;92011.03;;;21.21;33.22
17521;BME280;8878;-33.370;-70.552;2023-03-25T09:21:03;92012.63;;;21.22;34.17
17521;BME280;8878;-33.370;-70.552;2023-03-25T09:23:32;92005.13;;;21.27;35.07
17521;BME280;8878;-33.370;-70.552;2023-03-25T09:26:02;92019.06;;;21.08;35.30
17521;BME280;8878;-33.370;-70.552;2023-03-25T09:28:31;92008.97;;;21.05;35.17
17521;BME280;8878;-33.370;-70.552;2023-03-25T09:31:00;92018.56;;;20.94;34.91
17521;BME280;8878;-33.370;-70.552;2023-03-25T09:33:31;92015.97;;;20.86;35.49
17521;BME280;8878;-33.370;-70.552;2023-03-25T09:36:01;92024.59;;;20.91;34.48
17521;BME280;8878;-33.370;-70.552;2023-03-25T09:38:31;92021.56;;;20.81;35.54
17521;BME280;8878;-33.370;-70.552;2023-03-25T09:41:03;92022.88;;;20.75;35.18
17521;BME280;8878;-33.370;-70.552;2023-03-25T09:43:44;92021.97;;;20.70;34.91
17521;BME280;8878;-33.370;-70.552;2023-03-25T09:46:17;92025.44;;;20.71;35.50
17521;BME280;8878;-33.370;-70.552;2023-03-25T09:48:49;92021.59;;;20.60;35.78
17521;BME280;8878;-33.370;-70.552;2023-03-25T09:51:22;92024.47;;;20.55;35.72
17521;BME280;8878;-33.370;-70.552;2023-03-25T09:53:55;92018.25;;;20.63;35.55
17521;BME280;8878;-33.370;-70.552;2023-03-25T09:56:28;92022.97;;;20.66;35.17
17521;BME280;8878;-33.370;-70.552;2023-03-25T09:59:02;92024.03;;;20.53;34.56
17521;BME280;8878;-33.370;-70.552;2023-03-25T10:01:40;92022.72;;;20.59;34.57
17521;BME280;8878;-33.370;-70.552;2023-03-25T10:04:43;92022.66;;;20.47;36.13
17521;BME280;8878;-33.370;-70.552;2023-03-25T10:07:27;92023.25;;;20.31;36.92
17521;BME280;8878;-33.370;-70.552;2023-03-25T10:10:06;92018.19;;;20.39;35.54
17521;BME280;8878;-33.370;-70.552;2023-03-25T10:12:42;92016.41;;;20.43;34.66
17521;BME280;8878;-33.370;-70.552;2023-03-25T10:15:19;92019.44;;;20.32;35.15
17521;BME280;8878;-33.370;-70.552;2023-03-25T10:18:01;92021.22;;;20.28;34.69
17521;BME280;8878;-33.370;-70.552;2023-03-25T10:20:42;92015.13;;;20.19;33.28
17521;BME280;8878;-33.370;-70.552;2023-03-25T10:23:20;92007.09;;;20.19;32.43
17521;BME280;8878;-33.370;-70.552;2023-03-25T10:25:55;92014.44;;;20.52;33.00
17521;BME280;8878;-33.370;-70.552;2023-03-25T10:28:29;92012.00;;;20.59;32.97
17521;BME280;8878;-33.370;-70.552;2023-03-25T10:31:02;92008.59;;;20.50;34.99
17521;BME280;8878;-33.370;-70.552;2023-03-25T10:33:35;92015.94;;;20.41;34.84
17521;BME280;8878;-33.370;-70.552;2023-03-25T10:36:10;92010.97;;;20.30;36.61
17521;BME280;8878;-33.370;-70.552;2023-03-25T10:38:40;92018.53;;;20.28;36.65
17521;BME280;8878;-33.370;-70.552;2023-03-25T10:41:15;92010.31;;;20.13;36.40
17521;BME280;8878;-33.370;-70.552;2023-03-25T10:43:49;92014.03;;;20.20;35.85
17521;BME280;8878;-33.370;-70.552;2023-03-25T10:46:24;92008.88;;;20.15;36.07
17521;BME280;8878;-33.370;-70.552;2023-03-25T10:48:55;92008.66;;;20.20;35.89
17521;BME280;8878;-33.370;-70.552;2023-03-25T10:51:28;92009.97;;;20.14;35.86
17521;BME280;8878;-33.370;-70.552;2023-03-25T10:53:59;92019.06;;;20.01;35.81
17521;BME280;8878;-33.370;-70.552;2023-03-25T10:56:30;92014.66;;;19.97;36.05
17521;BME280;8878;-33.370;-70.552;2023-03-25T10:59:05;92019.31;;;19.87;36.40
17521;BME280;8878;-33.370;-70.552;2023-03-25T11:01:41;92015.44;;;19.97;36.13
17521;BME280;8878;-33.370;-70.552;2023-03-25T11:04:14;92009.50;;;20.12;35.18
17521;BME280;8878;-33.370;-70.552;2023-03-25T11:06:51;92019.84;;;20.02;34.61
17521;BME280;8878;-33.370;-70.552;2023-03-25T11:09:23;92013.97;;;20.08;34.98
17521;BME280;8878;-33.370;-70.552;2023-03-25T11:11:54;92010.09;;;20.18;35.14
17521;BME280;8878;-33.370;-70.552;2023-03-25T11:14:23;92013.81;;;20.25;34.67
17521;BME280;8878;-33.370;-70.552;2023-03-25T11:16:55;92016.75;;;20.12;33.67
17521;BME280;8878;-33.370;-70.552;2023-03-25T11:19:26;92022.06;;;20.20;32.79
17521;BME280;8878;-33.370;-70.552;2023-03-25T11:22:02;92025.31;;;20.05;33.62
17521;BME280;8878;-33.370;-70.552;2023-03-25T11:24:41;92029.00;;;20.01;33.56
17521;BME280;8878;-33.370;-70.552;2023-03-25T11:27:16;92021.69;;;20.10;33.01
17521;BME280;8878;-33.370;-70.552;2023-03-25T11:29:53;92034.34;;;20.21;33.53
17521;BME280;8878;-33.370;-70.552;2023-03-25T11:32:30;92033.31;;;20.35;33.39
17521;BME280;8878;-33.370;-70.552;2023-03-25T11:35:01;92036.94;;;20.39;32.11
17521;BME280;8878;-33.370;-70.552;2023-03-25T11:37:43;92051.28;;;20.55;30.93
17521;BME280;8878;-33.370;-70.552;2023-03-25T11:40:15;92046.81;;;20.80;29.76
17521;BME280;8878;-33.370;-70.552;2023-03-25T11:42:45;92043.75;;;21.14;30.13
17521;BME280;8878;-33.370;-70.552;2023-03-25T11:45:21;92052.88;;;21.34;31.02
17521;BME280;8878;-33.370;-70.552;2023-03-25T11:47:51;92049.31;;;21.42;30.80
17521;BME280;8878;-33.370;-70.552;2023-03-25T11:50:27;92056.00;;;21.36;30.99
17521;BME280;8878;-33.370;-70.552;2023-03-25T11:53:00;92056.44;;;21.26;30.74
17521;BME280;8878;-33.370;-70.552;2023-03-25T11:55:36;92056.00;;;21.36;32.66
17521;BME280;8878;-33.370;-70.552;2023-03-25T11:58:13;92054.00;;;21.45;32.03
17521;BME280;8878;-33.370;-70.552;2023-03-25T12:00:47;92054.44;;;21.47;31.25
17521;BME280;8878;-33.370;-70.552;2023-03-25T12:03:20;92048.66;;;21.45;31.11
17521;BME280;8878;-33.370;-70.552;2023-03-25T12:06:02;92049.75;;;21.56;30.89
17521;BME280;8878;-33.370;-70.552;2023-03-25T12:08:41;92045.63;;;21.71;29.93
17521;BME280;8878;-33.370;-70.552;2023-03-25T12:11:13;92054.66;;;21.91;30.04
17521;BME280;8878;-33.370;-70.552;2023-03-25T12:16:56;92061.38;;;22.21;29.97
17521;BME280;8878;-33.370;-70.552;2023-03-25T12:19:36;92060.16;;;22.31;29.48
17521;BME280;8878;-33.370;-70.552;2023-03-25T12:22:19;92065.06;;;22.29;30.25
17521;BME280;8878;-33.370;-70.552;2023-03-25T12:25:04;92064.38;;;22.32;29.61
17521;BME280;8878;-33.370;-70.552;2023-03-25T12:27:46;92057.41;;;22.43;29.19
17521;BME280;8878;-33.370;-70.552;2023-03-25T12:30:31;92052.78;;;22.55;29.46
17521;BME280;8878;-33.370;-70.552;2023-03-25T12:33:13;92057.09;;;22.72;28.60
17521;BME280;8878;-33.370;-70.552;2023-03-25T12:36:02;92059.84;;;22.88;29.50
17521;BME280;8878;-33.370;-70.552;2023-03-25T12:38:42;92055.81;;;23.10;27.60
17521;BME280;8878;-33.370;-70.552;2023-03-25T12:41:20;92061.06;;;23.34;27.47
17521;BME280;8878;-33.370;-70.552;2023-03-25T12:43:59;92053.22;;;23.57;27.23
17521;BME280;8878;-33.370;-70.552;2023-03-25T12:49:40;92050.88;;;23.87;27.01
17521;BME280;8878;-33.370;-70.552;2023-03-25T12:52:17;92045.34;;;24.14;26.69
17521;BME280;8878;-33.370;-70.552;2023-03-25T12:55:02;92045.41;;;24.18;26.61
17521;BME280;8878;-33.370;-70.552;2023-03-25T12:57:49;92048.16;;;24.37;26.46
17521;BME280;8878;-33.370;-70.552;2023-03-25T13:00:33;92041.16;;;24.52;25.98
17521;BME280;8878;-33.370;-70.552;2023-03-25T13:03:23;92053.44;;;24.69;26.13
17521;BME280;8878;-33.370;-70.552;2023-03-25T13:06:00;92045.44;;;24.72;25.34
17521;BME280;8878;-33.370;-70.552;2023-03-25T13:08:39;92043.91;;;24.90;24.53
17521;BME280;8878;-33.370;-70.552;2023-03-25T13:11:16;92037.84;;;24.97;25.13
17521;BME280;8878;-33.370;-70.552;2023-03-25T13:13:53;92047.34;;;25.10;25.71
17521;BME280;8878;-33.370;-70.552;2023-03-25T13:16:27;92048.94;;;25.34;26.23
17521;BME280;8878;-33.370;-70.552;2023-03-25T13:19:02;92051.63;;;24.92;27.51
17521;BME280;8878;-33.370;-70.552;2023-03-25T13:21:35;92056.75;;;24.97;28.44
17521;BME280;8878;-33.370;-70.552;2023-03-25T13:24:10;92055.00;;;25.08;26.87
17521;BME280;8878;-33.370;-70.552;2023-03-25T13:26:43;92061.78;;;24.99;26.90
17521;BME280;8878;-33.370;-70.552;2023-03-25T13:29:21;92064.31;;;25.11;25.99